sensor_id;sensor_type;location;lat;lon;timestamp;pressure;altitude;pressure_sealevel;temperature;humidity
84967;BME280;75275;51.348;12.358;2024-03-08T00:02:07;101069.22;;;2.01;65.48
84967;BME280;75275;51.348;12.358;2024-03-08T00:04:34;101068.78;;;1.97;65.32
84967;BME280;75275;51.348;12.358;2024-03-08T00:07:03;101063.78;;;1.94;65.46
84967;BME280;75275;51.348;12.358;2024-03-08T00:09:30;101068.34;;;1.93;65.22
84967;BME280;75275;51.348;12.358;2024-03-08T00:11:57;101065.66;;;1.93;65.29
84967;BME280;75275;51.348;12.358;2024-03-08T00:14:24;101062.50;;;1.90;65.54
84967;BME280;75275;51.348;12.358;2024-03-08T00:16:51;101068.75;;;1.90;65.22
84967;BME280;75275;51.348;12.358;2024-03-08T00:19:19;101067.91;;;1.90;65.67
84967;BME280;75275;51.348;12.358;2024-03-08T00:21:46;101062.91;;;1.87;65.67
84967;BME280;75275;51.348;12.358;2024-03-08T00:24:15;101066.69;;;1.92;64.90
84967;BME280;75275;51.348;12.358;2024-03-08T00:26:42;101076.06;;;1.97;64.80
84967;BME280;75275;51.348;12.358;2024-03-08T00:29:09;101063.34;;;1.90;65.02
84967;BME280;75275;51.348;12.358;2024-03-08T00:31:36;101071.25;;;1.92;64.95
84967;BME280;75275;51.348;12.358;2024-03-08T00:34:04;101067.09;;;1.89;66.55
84967;BME280;75275;51.348;12.358;2024-03-08T00:36:32;101061.03;;;1.87;65.69
84967;BME280;75275;51.348;12.358;2024-03-08T00:38:59;101062.91;;;1.87;65.92
84967;BME280;75275;51.348;12.358;2024-03-08T00:41:28;101060.59;;;1.84;65.98
84967;BME280;75275;51.348;12.358;2024-03-08T00:43:55;101063.25;;;1.77;65.50
84967;BME280;75275;51.348;12.358;2024-03-08T00:46:21;101063.03;;;1.72;66.18
84967;BME280;75275;51.348;12.358;2024-03-08T00:48:48;101049.50;;;1.72;66.50
84967;BME280;75275;51.348;12.358;2024-03-08T00:51:15;101061.94;;;1.66;66.79
84967;BME280;75275;51.348;12.358;2024-03-08T00:53:42;101051.31;;;1.65;66.41
84967;BME280;75275;51.348;12.358;2024-03-08T00:56:09;101045.94;;;1.65;66.51
84967;BME280;75275;51.348;12.358;2024-03-08T00:58:37;101041.56;;;1.64;66.54
84967;BME280;75275;51.348;12.358;2024-03-08T01:01:05;101043.22;;;1.65;65.69
84967;BME280;75275;51.348;12.358;2024-03-08T01:03:32;101035.94;;;1.65;66.38
84967;BME280;75275;51.348;12.358;2024-03-08T01:05:59;101039.69;;;1.64;66.83
84967;BME280;75275;51.348;12.358;2024-03-08T01:08:27;101034.03;;;1.59;66.70
84967;BME280;75275;51.348;12.358;2024-03-08T01:10:54;101029.03;;;1.56;67.05
84967;BME280;75275;51.348;12.358;2024-03-08T01:13:21;101035.28;;;1.57;66.87
84967;BME280;75275;51.348;12.358;2024-03-08T01:15:49;101030.72;;;1.57;67.05
84967;BME280;75275;51.348;12.358;2024-03-08T01:18:16;101029.03;;;1.56;67.36
84967;BME280;75275;51.348;12.358;2024-03-08T01:20:45;101029.44;;;1.53;66.89
84967;BME280;75275;51.348;12.358;2024-03-08T01:23:12;101031.53;;;1.58;66.96
84967;BME280;75275;51.348;12.358;2024-03-08T01:25:39;101025.31;;;1.57;66.55
84967;BME280;75275;51.348;12.358;2024-03-08T01:28:06;101030.25;;;1.54;66.66
84967;BME280;75275;51.348;12.358;2024-03-08T01:30:34;101027.75;;;1.52;67.39
84967;BME280;75275;51.348;12.358;2024-03-08T01:33:04;101019.47;;;1.54;67.71
84967;BME280;75275;51.348;12.358;2024-03-08T01:35:31;101016.09;;;1.52;67.04
84967;BME280;75275;51.348;12.358;2024-03-08T01:37:58;101011.09;;;1.49;68.32
84967;BME280;75275;51.348;12.358;2024-03-08T01:40:25;101014.44;;;1.51;67.43
84967;BME280;75275;51.348;12.358;2024-03-08T01:42:52;101003.03;;;1.55;67.67
84967;BME280;75275;51.348;12.358;2024-03-08T01:45:22;101002.03;;;1.56;66.63
84967;BME280;75275;51.348;12.358;2024-03-08T01:47:49;101000.50;;;1.47;67.77
84967;BME280;75275;51.348;12.358;2024-03-08T01:50:18;100997.75;;;1.40;67.37
84967;BME280;75275;51.348;12.358;2024-03-08T01:52:45;100995.69;;;1.42;67.28
84967;BME280;75275;51.348;12.358;2024-03-08T01:55:12;100986.31;;;1.38;68.15
84967;BME280;75275;51.348;12.358;2024-03-08T01:57:41;100990.28;;;1.42;67.97
84967;BME280;75275;51.348;12.358;2024-03-08T02:00:09;100984.69;;;1.44;67.72
84967;BME280;75275;51.348;12.358;2024-03-08T02:02:37;100991.56;;;1.47;67.02
84967;BME280;75275;51.348;12.358;2024-03-08T02:05:05;100992.41;;;1.47;67.95
84967;BME280;75275;51.348;12.358;2024-03-08T02:07:34;100985.50;;;1.44;68.15
84967;BME280;75275;51.348;12.358;2024-03-08T02:10:01;100988.59;;;1.41;68.06
84967;BME280;75275;51.348;12.358;2024-03-08T02:12:28;100989.03;;;1.38;67.45
84967;BME280;75275;51.348;12.358;2024-03-08T02:14:55;100989.19;;;1.37;67.99
84967;BME280;75275;51.348;12.358;2024-03-08T02:17:22;100980.72;;;1.40;68.40
84967;BME280;75275;51.348;12.358;2024-03-08T02:19:49;100983.63;;;1.38;68.08
84967;BME280;75275;51.348;12.358;2024-03-08T02:22:17;100977.78;;;1.35;68.65
84967;BME280;75275;51.348;12.358;2024-03-08T02:24:45;100978.78;;;1.34;68.88
84967;BME280;75275;51.348;12.358;2024-03-08T02:27:11;100977.34;;;1.38;68.56
84967;BME280;75275;51.348;12.358;2024-03-08T02:29:39;100975.25;;;1.33;68.30
84967;BME280;75275;51.348;12.358;2024-03-08T02:32:07;100971.69;;;1.26;68.49
84967;BME280;75275;51.348;12.358;2024-03-08T02:34:34;100972.31;;;1.28;68.91
84967;BME280;75275;51.348;12.358;2024-03-08T02:37:01;100981.06;;;1.30;68.92
84967;BME280;75275;51.348;12.358;2024-03-08T02:39:30;100976.25;;;1.26;69.50
84967;BME280;75275;51.348;12.358;2024-03-08T02:41:57;100972.28;;;1.22;69.23
84967;BME280;75275;51.348;12.358;2024-03-08T02:44:24;100981.06;;;1.30;68.43
84967;BME280;75275;51.348;12.358;2024-03-08T02:46:51;100969.25;;;1.31;68.56
84967;BME280;75275;51.348;12.358;2024-03-08T02:49:20;100974.00;;;1.29;68.25
84967;BME280;75275;51.348;12.358;2024-03-08T02:51:47;100972.78;;;1.32;68.18
84967;BME280;75275;51.348;12.358;2024-03-08T02:54:14;100972.31;;;1.28;68.41
84967;BME280;75275;51.348;12.358;2024-03-08T02:56:44;100971.06;;;1.24;69.46
84967;BME280;75275;51.348;12.358;2024-03-08T02:59:12;100966.50;;;1.25;68.74
84967;BME280;75275;51.348;12.358;2024-03-08T03:01:40;100963.78;;;1.25;68.67
84967;BME280;75275;51.348;12.358;2024-03-08T03:04:08;100963.13;;;1.23;68.77
84967;BME280;75275;51.348;12.358;2024-03-08T03:06:35;100963.13;;;1.23;69.05
84967;BME280;75275;51.348;12.358;2024-03-08T03:09:02;100957.72;;;1.23;69.08
84967;BME280;75275;51.348;12.358;2024-03-08T03:11:31;100960.66;;;1.21;69.48
84967;BME280;75275;51.348;12.358;2024-03-08T03:14:00;100962.06;;;1.17;68.41
84967;BME280;75275;51.348;12.358;2024-03-08T03:16:27;100966.44;;;1.18;68.48
84967;BME280;75275;51.348;12.358;2024-03-08T03:18:54;100964.78;;;1.17;69.23
84967;BME280;75275;51.348;12.358;2024-03-08T03:21:22;100958.50;;;1.10;69.43
84967;BME280;75275;51.348;12.358;2024-03-08T03:23:49;100958.09;;;1.13;69.85
84967;BME280;75275;51.348;12.358;2024-03-08T03:26:16;100956.22;;;1.13;68.74
84967;BME280;75275;51.348;12.358;2024-03-08T03:28:44;100951.28;;;1.17;69.10
84967;BME280;75275;51.348;12.358;2024-03-08T03:31:12;100946.50;;;1.19;69.35
84967;BME280;75275;51.348;12.358;2024-03-08T03:33:40;100948.81;;;1.22;68.24
84967;BME280;75275;51.348;12.358;2024-03-08T03:36:07;100944.44;;;1.21;68.80
84967;BME280;75275;51.348;12.358;2024-03-08T03:38:35;100946.50;;;1.19;69.13
84967;BME280;75275;51.348;12.358;2024-03-08T03:41:03;100946.09;;;1.22;68.86
84967;BME280;75275;51.348;12.358;2024-03-08T03:43:35;100945.88;;;1.17;69.40
84967;BME280;75275;51.348;12.358;2024-03-08T03:46:05;100938.56;;;1.11;69.20
84967;BME280;75275;51.348;12.358;2024-03-08T03:48:34;100943.50;;;1.07;70.00
84967;BME280;75275;51.348;12.358;2024-03-08T03:51:01;100946.00;;;1.09;69.09
84967;BME280;75275;51.348;12.358;2024-03-08T03:53:29;100941.47;;;1.09;69.26
84967;BME280;75275;51.348;12.358;2024-03-08T03:55:56;100938.94;;;1.08;69.54
84967;BME280;75275;51.348;12.358;2024-03-08T03:58:23;100937.28;;;1.07;69.57
84967;BME280;75275;51.348;12.358;2024-03-08T04:00:52;100942.22;;;1.03;69.25
84967;BME280;75275;51.348;12.358;2024-03-08T04:03:19;100940.81;;;1.07;70.15
84967;BME280;75275;51.348;12.358;2024-03-08T04:05:47;100932.72;;;1.07;69.57
84967;BME280;75275;51.348;12.358;2024-03-08T04:08:14;100938.56;;;1.11;69.79
84967;BME280;75275;51.348;12.358;2024-03-08T04:10:42;100940.59;;;1.09;69.44
84967;BME280;75275;51.348;12.358;2024-03-08T04:13:12;100936.50;;;1.13;69.18
84967;BME280;75275;51.348;12.358;2024-03-08T04:15:41;100934.19;;;1.10;69.24
84967;BME280;75275;51.348;12.358;2024-03-08T04:18:21;100934.97;;;1.04;70.05
84967;BME280;75275;51.348;12.358;2024-03-08T04:20:49;100932.06;;;1.05;69.81
84967;BME280;75275;51.348;12.358;2024-03-08T04:23:16;100936.63;;;1.05;69.39
84967;BME280;75275;51.348;12.358;2024-03-08T04:25:44;100932.66;;;1.01;69.75
84967;BME280;75275;51.348;12.358;2024-03-08T04:28:10;100933.94;;;1.05;69.51
84967;BME280;75275;51.348;12.358;2024-03-08T04:30:38;100925.59;;;1.00;70.53
84967;BME280;75275;51.348;12.358;2024-03-08T04:33:05;100930.16;;;0.99;69.96
84967;BME280;75275;51.348;12.358;2024-03-08T04:35:34;100924.78;;;0.99;70.33
84967;BME280;75275;51.348;12.358;2024-03-08T04:38:02;100924.78;;;0.99;69.53
84967;BME280;75275;51.348;12.358;2024-03-08T04:40:30;100918.53;;;0.99;70.49
84967;BME280;75275;51.348;12.358;2024-03-08T04:42:58;100919.97;;;0.94;70.45
84967;BME280;75275;51.348;12.358;2024-03-08T04:45:25;100915.56;;;0.93;69.84
84967;BME280;75275;51.348;12.358;2024-03-08T04:47:52;100918.94;;;0.95;70.03
84967;BME280;75275;51.348;12.358;2024-03-08T04:50:19;100918.94;;;0.95;69.96
84967;BME280;75275;51.348;12.358;2024-03-08T04:52:46;100913.31;;;0.97;70.03
84967;BME280;75275;51.348;12.358;2024-03-08T04:55:15;100912.09;;;1.00;69.74
84967;BME280;75275;51.348;12.358;2024-03-08T04:57:42;100905.44;;;0.95;70.64
84967;BME280;75275;51.348;12.358;2024-03-08T05:00:10;100921.38;;;0.90;70.90
84967;BME280;75275;51.348;12.358;2024-03-08T05:02:37;100910.13;;;0.87;70.53
84967;BME280;75275;51.348;12.358;2024-03-08T05:05:07;100905.16;;;0.90;70.00
84967;BME280;75275;51.348;12.358;2024-03-08T05:07:34;100910.19;;;0.93;69.86
84967;BME280;75275;51.348;12.358;2024-03-08T05:10:01;100909.19;;;0.94;70.83
84967;BME280;75275;51.348;12.358;2024-03-08T05:12:30;100904.34;;;0.90;69.97
84967;BME280;75275;51.348;12.358;2024-03-08T05:14:57;100912.81;;;0.87;70.68
84967;BME280;75275;51.348;12.358;2024-03-08T05:17:24;100900.59;;;0.84;70.63
84967;BME280;75275;51.348;12.358;2024-03-08T05:19:51;100904.28;;;0.83;71.05
84967;BME280;75275;51.348;12.358;2024-03-08T05:22:19;100902.84;;;0.81;70.85
84967;BME280;75275;51.348;12.358;2024-03-08T05:24:45;100907.56;;;0.79;70.58
84967;BME280;75275;51.348;12.358;2024-03-08T05:27:13;100905.47;;;0.74;71.29
84967;BME280;75275;51.348;12.358;2024-03-08T05:29:41;100903.00;;;0.79;71.21
84967;BME280;75275;51.348;12.358;2024-03-08T05:32:10;100903.47;;;0.83;70.92
84967;BME280;75275;51.348;12.358;2024-03-08T05:34:37;100898.06;;;0.83;71.62
84967;BME280;75275;51.348;12.358;2024-03-08T05:37:05;100891.44;;;0.85;71.06
84967;BME280;75275;51.348;12.358;2024-03-08T05:39:32;100896.47;;;0.88;71.35
84967;BME280;75275;51.348;12.358;2024-03-08T05:41:59;100888.59;;;0.93;71.32
84967;BME280;75275;51.348;12.358;2024-03-08T05:44:26;100896.06;;;0.91;70.57
84967;BME280;75275;51.348;12.358;2024-03-08T05:46:56;100896.06;;;0.91;70.25
84967;BME280;75275;51.348;12.358;2024-03-08T05:49:23;100890.66;;;0.91;71.37
84967;BME280;75275;51.348;12.358;2024-03-08T05:51:50;100892.53;;;0.91;71.36
84967;BME280;75275;51.348;12.358;2024-03-08T05:54:18;100891.69;;;0.90;70.14
84967;BME280;75275;51.348;12.358;2024-03-08T05:56:47;100890.91;;;0.96;70.54
84967;BME280;75275;51.348;12.358;2024-03-08T05:59:18;100895.25;;;0.98;70.65
84967;BME280;75275;51.348;12.358;2024-03-08T06:01:45;100890.50;;;1.00;70.14
84967;BME280;75275;51.348;12.358;2024-03-08T06:04:15;100894.88;;;1.01;70.10
84967;BME280;75275;51.348;12.358;2024-03-08T06:06:43;100884.97;;;1.08;69.42
84967;BME280;75275;51.348;12.358;2024-03-08T06:09:10;100887.88;;;1.06;70.90
84967;BME280;75275;51.348;12.358;2024-03-08T06:11:42;100884.56;;;1.11;69.61
84967;BME280;75275;51.348;12.358;2024-03-08T06:14:09;100888.88;;;1.05;70.61
84967;BME280;75275;51.348;12.358;2024-03-08T06:16:36;100895.97;;;1.06;70.69
84967;BME280;75275;51.348;12.358;2024-03-08T06:19:03;100887.50;;;1.16;70.37
84967;BME280;75275;51.348;12.358;2024-03-08T06:21:32;100889.81;;;1.19;70.18
84967;BME280;75275;51.348;12.358;2024-03-08T06:23:59;100895.47;;;1.24;70.23
84967;BME280;75275;51.348;12.358;2024-03-08T06:26:26;100892.38;;;1.27;70.04
84967;BME280;75275;51.348;12.358;2024-03-08T06:28:54;100890.50;;;1.34;68.93
84967;BME280;75275;51.348;12.358;2024-03-08T06:31:21;100888.69;;;1.41;69.82
84967;BME280;75275;51.348;12.358;2024-03-08T06:33:48;100888.28;;;1.44;69.07
84967;BME280;75275;51.348;12.358;2024-03-08T06:36:16;100881.88;;;1.46;68.42
84967;BME280;75275;51.348;12.358;2024-03-08T06:38:45;100888.75;;;1.55;68.29
84967;BME280;75275;51.348;12.358;2024-03-08T06:41:12;100875.91;;;1.57;69.33
84967;BME280;75275;51.348;12.358;2024-03-08T06:43:41;100877.78;;;1.63;69.51
84967;BME280;75275;51.348;12.358;2024-03-08T06:46:08;100881.59;;;1.75;68.62
84967;BME280;75275;51.348;12.358;2024-03-08T06:48:38;100883.47;;;1.75;67.43
84967;BME280;75275;51.348;12.358;2024-03-08T06:51:05;100875.13;;;1.76;68.10
84967;BME280;75275;51.348;12.358;2024-03-08T06:53:32;100875.19;;;1.89;67.89
84967;BME280;75275;51.348;12.358;2024-03-08T06:56:02;100883.72;;;2.00;67.90
84967;BME280;75275;51.348;12.358;2024-03-08T06:58:30;100877.50;;;2.06;67.13
84967;BME280;75275;51.348;12.358;2024-03-08T07:01:01;100877.75;;;2.17;66.82
84967;BME280;75275;51.348;12.358;2024-03-08T07:03:29;100879.22;;;2.27;67.06
84967;BME280;75275;51.348;12.358;2024-03-08T07:05:57;100869.03;;;2.35;66.28
84967;BME280;75275;51.348;12.358;2024-03-08T07:08:24;100873.41;;;2.43;66.30
84967;BME280;75275;51.348;12.358;2024-03-08T07:10:52;100866.75;;;2.39;66.23
84967;BME280;75275;51.348;12.358;2024-03-08T07:13:21;100867.16;;;2.42;65.81
84967;BME280;75275;51.348;12.358;2024-03-08T07:15:48;100867.00;;;2.51;65.67
84967;BME280;75275;51.348;12.358;2024-03-08T07:18:15;100877.38;;;2.47;65.23
84967;BME280;75275;51.348;12.358;2024-03-08T07:20:42;100874.25;;;2.57;64.98
84967;BME280;75275;51.348;12.358;2024-03-08T07:23:09;100871.97;;;2.67;64.38
84967;BME280;75275;51.348;12.358;2024-03-08T07:25:57;100865.09;;;2.78;64.80
84967;BME280;75275;51.348;12.358;2024-03-08T07:28:27;100864.47;;;2.96;64.65
84967;BME280;75275;51.348;12.358;2024-03-08T07:30:56;100856.75;;;3.06;64.74
84967;BME280;75275;51.348;12.358;2024-03-08T07:33:35;100851.91;;;3.21;63.52
84967;BME280;75275;51.348;12.358;2024-03-08T07:36:04;100859.16;;;3.41;62.84
84967;BME280;75275;51.348;12.358;2024-03-08T07:38:31;100862.69;;;3.41;63.26
84967;BME280;75275;51.348;12.358;2024-03-08T07:40:58;100856.00;;;3.50;62.59
84967;BME280;75275;51.348;12.358;2024-03-08T07:43:25;100852.03;;;3.53;62.50
84967;BME280;75275;51.348;12.358;2024-03-08T07:45:53;100854.06;;;3.64;62.47
84967;BME280;75275;51.348;12.358;2024-03-08T07:48:20;100844.84;;;3.78;62.03
84967;BME280;75275;51.348;12.358;2024-03-08T07:50:47;100852.44;;;3.95;61.12
84967;BME280;75275;51.348;12.358;2024-03-08T07:53:15;100841.44;;;3.90;60.79
84967;BME280;75275;51.348;12.358;2024-03-08T07:55:42;100837.63;;;3.97;61.48
84967;BME280;75275;51.348;12.358;2024-03-08T07:58:10;100840.00;;;4.19;60.17
84967;BME280;75275;51.348;12.358;2024-03-08T08:00:38;100842.84;;;4.30;59.64
84967;BME280;75275;51.348;12.358;2024-03-08T08:03:09;100835.13;;;4.27;59.35
84967;BME280;75275;51.348;12.358;2024-03-08T08:05:38;100841.25;;;4.16;59.49
84967;BME280;75275;51.348;12.358;2024-03-08T08:08:05;100840.03;;;4.12;59.72
84967;BME280;75275;51.348;12.358;2024-03-08T08:10:35;100835.06;;;4.09;59.62
84967;BME280;75275;51.348;12.358;2024-03-08T08:13:03;100841.00;;;4.24;59.61
84967;BME280;75275;51.348;12.358;2024-03-08T08:15:30;100829.94;;;4.26;59.12
84967;BME280;75275;51.348;12.358;2024-03-08T08:17:59;100821.19;;;4.24;59.55
84967;BME280;75275;51.348;12.358;2024-03-08T08:20:29;100813.16;;;4.35;59.02
84967;BME280;75275;51.348;12.358;2024-03-08T08:22:56;100808.50;;;4.43;59.13
84967;BME280;75275;51.348;12.358;2024-03-08T08:25:24;100809.22;;;4.56;58.41
84967;BME280;75275;51.348;12.358;2024-03-08T08:27:51;100815.81;;;4.67;58.25
84967;BME280;75275;51.348;12.358;2024-03-08T08:30:19;100801.44;;;4.85;57.98
84967;BME280;75275;51.348;12.358;2024-03-08T08:32:46;100812.13;;;5.05;57.89
84967;BME280;75275;51.348;12.358;2024-03-08T08:35:14;100812.03;;;5.30;58.24
84967;BME280;75275;51.348;12.358;2024-03-08T08:37:43;100811.28;;;5.41;57.08
84967;BME280;75275;51.348;12.358;2024-03-08T08:40:11;100812.41;;;5.34;56.79
84967;BME280;75275;51.348;12.358;2024-03-08T08:42:40;100809.91;;;5.50;56.19
84967;BME280;75275;51.348;12.358;2024-03-08T08:45:08;100809.63;;;5.40;56.00
84967;BME280;75275;51.348;12.358;2024-03-08T08:50:02;100799.13;;;5.44;56.64
84967;BME280;75275;51.348;12.358;2024-03-08T08:52:30;100803.50;;;5.63;55.88
84967;BME280;75275;51.348;12.358;2024-03-08T08:54:59;100797.69;;;5.90;55.05
84967;BME280;75275;51.348;12.358;2024-03-08T08:57:29;100801.28;;;6.02;55.40
84967;BME280;75275;51.348;12.358;2024-03-08T08:59:56;100803.81;;;6.15;54.70
84967;BME280;75275;51.348;12.358;2024-03-08T09:02:23;100796.19;;;6.36;54.42
84967;BME280;75275;51.348;12.358;2024-03-08T09:04:51;100793.41;;;6.24;54.53
84967;BME280;75275;51.348;12.358;2024-03-08T09:07:18;100797.81;;;6.25;54.36
84967;BME280;75275;51.348;12.358;2024-03-08T09:09:45;100793.09;;;6.32;54.88
84967;BME280;75275;51.348;12.358;2024-03-08T09:12:14;100781.66;;;6.65;54.64
84967;BME280;75275;51.348;12.358;2024-03-08T09:14:41;100776.66;;;6.74;54.45
84967;BME280;75275;51.348;12.358;2024-03-08T09:17:08;100781.75;;;6.70;53.15
84967;BME280;75275;51.348;12.358;2024-03-08T09:19:36;100776.31;;;6.70;53.96
84967;BME280;75275;51.348;12.358;2024-03-08T09:22:03;100764.22;;;6.66;53.89
84967;BME280;75275;51.348;12.358;2024-03-08T09:24:30;100766.59;;;6.86;52.29
84967;BME280;75275;51.348;12.358;2024-03-08T09:26:57;100752.31;;;9.55;46.68
84967;BME280;75275;51.348;12.358;2024-03-08T09:29:26;100733.19;;;13.75;36.87
84967;BME280;75275;51.348;12.358;2024-03-08T09:31:53;100723.34;;;17.12;29.45
84967;BME280;75275;51.348;12.358;2024-03-08T09:34:20;100722.78;;;19.00;26.10
84967;BME280;75275;51.348;12.358;2024-03-08T09:36:47;100712.69;;;20.22;23.47
84967;BME280;75275;51.348;12.358;2024-03-08T09:39:14;100706.91;;;21.68;23.59
84967;BME280;75275;51.348;12.358;2024-03-08T09:41:42;100698.09;;;22.41;20.43
84967;BME280;75275;51.348;12.358;2024-03-08T09:44:13;100702.13;;;21.69;20.43
84967;BME280;75275;51.348;12.358;2024-03-08T09:46:42;100702.97;;;21.90;20.58
84967;BME280;75275;51.348;12.358;2024-03-08T09:49:09;100707.00;;;21.21;21.14
84967;BME280;75275;51.348;12.358;2024-03-08T09:51:38;100703.13;;;21.64;20.73
84967;BME280;75275;51.348;12.358;2024-03-08T09:54:06;100700.53;;;23.25;19.65
84967;BME280;75275;51.348;12.358;2024-03-08T09:56:35;100693.47;;;24.36;18.04
84967;BME280;75275;51.348;12.358;2024-03-08T09:59:02;100687.94;;;23.43;18.41
84967;BME280;75275;51.348;12.358;2024-03-08T10:02:12;100692.25;;;22.34;19.57
84967;BME280;75275;51.348;12.358;2024-03-08T10:04:40;100686.31;;;23.18;18.82
84967;BME280;75275;51.348;12.358;2024-03-08T10:07:08;100681.78;;;23.90;18.05
84967;BME280;75275;51.348;12.358;2024-03-08T10:09:34;100669.66;;;24.42;17.67
84967;BME280;75275;51.348;12.358;2024-03-08T10:12:04;100673.41;;;21.18;20.77
84967;BME280;75275;51.348;12.358;2024-03-08T10:14:32;100686.59;;;17.34;26.06
84967;BME280;75275;51.348;12.358;2024-03-08T10:16:59;100699.84;;;14.50;30.75
84967;BME280;75275;51.348;12.358;2024-03-08T10:19:28;100698.31;;;12.85;34.84
84967;BME280;75275;51.348;12.358;2024-03-08T10:21:55;100698.91;;;11.80;36.80
84967;BME280;75275;51.348;12.358;2024-03-08T10:24:24;100697.19;;;11.33;38.95
84967;BME280;75275;51.348;12.358;2024-03-08T10:26:58;100689.88;;;10.86;39.76
84967;BME280;75275;51.348;12.358;2024-03-08T10:29:25;100690.72;;;10.49;40.99
84967;BME280;75275;51.348;12.358;2024-03-08T10:31:52;100680.94;;;9.89;41.69
84967;BME280;75275;51.348;12.358;2024-03-08T10:34:21;100684.78;;;9.88;42.58
84967;BME280;75275;51.348;12.358;2024-03-08T10:36:51;100682.78;;;9.83;42.47
84967;BME280;75275;51.348;12.358;2024-03-08T10:39:21;100684.47;;;9.84;43.31
84967;BME280;75275;51.348;12.358;2024-03-08T10:41:53;100675.56;;;9.72;42.87
84967;BME280;75275;51.348;12.358;2024-03-08T10:44:38;100688.16;;;9.19;43.81
84967;BME280;75275;51.348;12.358;2024-03-08T10:47:15;100684.03;;;9.16;44.36
84967;BME280;75275;51.348;12.358;2024-03-08T10:49:51;100689.53;;;9.22;44.20
84967;BME280;75275;51.348;12.358;2024-03-08T10:52:22;100681.13;;;9.01;43.54
84967;BME280;75275;51.348;12.358;2024-03-08T10:54:52;100672.84;;;8.96;44.01
84967;BME280;75275;51.348;12.358;2024-03-08T10:57:22;100676.97;;;8.99;44.64
84967;BME280;75275;51.348;12.358;2024-03-08T10:59:50;100676.78;;;9.05;44.81
84967;BME280;75275;51.348;12.358;2024-03-08T11:02:18;100670.19;;;9.01;43.72
84967;BME280;75275;51.348;12.358;2024-03-08T11:04:46;100667.38;;;8.96;43.49
84967;BME280;75275;51.348;12.358;2024-03-08T11:07:14;100667.81;;;8.88;44.09
84967;BME280;75275;51.348;12.358;2024-03-08T11:09:44;100658.34;;;8.74;44.56
84967;BME280;75275;51.348;12.358;2024-03-08T11:12:22;100655.69;;;8.79;44.67
84967;BME280;75275;51.348;12.358;2024-03-08T11:14:51;100649.19;;;8.85;45.01
84967;BME280;75275;51.348;12.358;2024-03-08T11:17:26;100649.13;;;9.02;45.64
84967;BME280;75275;51.348;12.358;2024-03-08T11:20:09;100635.59;;;9.12;45.49
84967;BME280;75275;51.348;12.358;2024-03-08T11:22:41;100641.94;;;8.96;44.30
84967;BME280;75275;51.348;12.358;2024-03-08T11:25:33;100638.97;;;8.97;44.96
84967;BME280;75275;51.348;12.358;2024-03-08T11:28:13;100631.13;;;8.84;44.77
84967;BME280;75275;51.348;12.358;2024-03-08T11:30:44;100631.31;;;8.77;45.73
84967;BME280;75275;51.348;12.358;2024-03-08T11:33:13;100630.00;;;8.80;46.34
84967;BME280;75275;51.348;12.358;2024-03-08T11:35:40;100621.63;;;9.13;46.18
84967;BME280;75275;51.348;12.358;2024-03-08T11:38:08;100617.25;;;9.12;43.64
84967;BME280;75275;51.348;12.358;2024-03-08T11:40:37;100609.56;;;9.09;44.46
84967;BME280;75275;51.348;12.358;2024-03-08T11:43:05;100610.69;;;9.13;43.83
84967;BME280;75275;51.348;12.358;2024-03-08T11:45:33;100606.97;;;9.25;43.51
84967;BME280;75275;51.348;12.358;2024-03-08T11:48:02;100605.88;;;9.26;43.30
84967;BME280;75275;51.348;12.358;2024-03-08T11:50:30;100602.59;;;9.24;43.13
84967;BME280;75275;51.348;12.358;2024-03-08T11:53:02;100598.78;;;9.25;43.39
84967;BME280;75275;51.348;12.358;2024-03-08T11:55:29;100604.09;;;9.09;43.78
84967;BME280;75275;51.348;12.358;2024-03-08T11:58:03;100585.97;;;9.03;44.24
84967;BME280;75275;51.348;12.358;2024-03-08T12:00:30;100584.66;;;9.06;44.31
84967;BME280;75275;51.348;12.358;2024-03-08T12:03:08;100582.34;;;9.20;44.76
84967;BME280;75275;51.348;12.358;2024-03-08T12:05:36;100574.75;;;9.27;43.95
84967;BME280;75275;51.348;12.358;2024-03-08T12:08:04;100584.44;;;9.39;44.12
84967;BME280;75275;51.348;12.358;2024-03-08T12:10:32;100579.78;;;9.40;43.25
84967;BME280;75275;51.348;12.358;2024-03-08T12:13:06;100568.75;;;9.30;43.66
84967;BME280;75275;51.348;12.358;2024-03-08T12:15:39;100559.50;;;9.36;43.37
84967;BME280;75275;51.348;12.358;2024-03-08T12:18:06;100548.56;;;9.36;43.12
84967;BME280;75275;51.348;12.358;2024-03-08T12:20:36;100560.69;;;9.45;43.31
84967;BME280;75275;51.348;12.358;2024-03-08T12:23:04;100543.25;;;9.56;43.54
84967;BME280;75275;51.348;12.358;2024-03-08T12:25:32;100554.00;;;9.63;43.97
84967;BME280;75275;51.348;12.358;2024-03-08T12:28:10;100542.22;;;9.62;43.00
84967;BME280;75275;51.348;12.358;2024-03-08T12:30:45;100538.91;;;9.60;43.38
84967;BME280;75275;51.348;12.358;2024-03-08T12:33:16;100534.53;;;9.59;43.34
84967;BME280;75275;51.348;12.358;2024-03-08T12:35:50;100529.16;;;9.75;43.79
84967;BME280;75275;51.348;12.358;2024-03-08T12:38:20;100531.69;;;9.81;43.62
84967;BME280;75275;51.348;12.358;2024-03-08T12:40:55;100519.84;;;9.71;44.41
84967;BME280;75275;51.348;12.358;2024-03-08T12:43:25;100523.78;;;9.90;44.44
84967;BME280;75275;51.348;12.358;2024-03-08T12:45:58;100507.28;;;11.36;41.33
84967;BME280;75275;51.348;12.358;2024-03-08T12:48:25;100506.72;;;11.65;39.77
84967;BME280;75275;51.348;12.358;2024-03-08T12:50:52;100506.19;;;11.42;40.41
84967;BME280;75275;51.348;12.358;2024-03-08T12:53:20;100493.28;;;11.17;41.10
84967;BME280;75275;51.348;12.358;2024-03-08T12:55:48;100503.69;;;10.90;40.87
84967;BME280;75275;51.348;12.358;2024-03-08T12:58:21;100500.59;;;10.60;41.23